METAR Data
IDs: Format: Raw Decoded Include TAF

Data at: 0618 UTC 24 Sep 2018

KJVW 240615Z AUTO 11004KT 2 1/2SM BR OVC002 24/24 A2994 RMK AO2
KJVW 240555Z AUTO 11004KT 1 3/4SM BR OVC002 24/24 A2994 RMK AO2
KJVW 240535Z AUTO 11003KT 3SM BR BKN002 24/24 A2995 RMK AO2
KJVW 240515Z AUTO 00000KT 4SM BR FEW002 23/23 A2995 RMK AO2
KJVW 240455Z AUTO 10004KT 4SM BR CLR 23/23 A2995 RMK AO2
KJVW 240435Z AUTO 12005KT 5SM BR CLR 23/23 A2996 RMK AO2
KJVW 240415Z AUTO 00000KT 6SM BR CLR 24/24 A2996 RMK AO2
KJVW 240355Z AUTO 00000KT 6SM BR CLR 24/24 A2996 RMK AO2
KJVW 240335Z AUTO 00000KT 7SM CLR 23/23 A2996 RMK AO2
KJVW 240315Z AUTO 00000KT 8SM FEW075 23/23 A2996 RMK AO2
KJVW 240255Z AUTO 00000KT 6SM BR BKN075 24/24 A2996 RMK AO2
KJVW 240235Z AUTO 00000KT 6SM BR FEW075 24/24 A2996 RMK AO2
KJVW 240215Z AUTO 00000KT 4SM BR CLR 24/24 A2995 RMK AO2
KJVW 240155Z AUTO 00000KT 5SM BR FEW002 24/24 A2995 RMK AO2
KJVW 240135Z AUTO 00000KT 5SM -DZ CLR 24/24 A2994 RMK AO2
KJVW 240115Z AUTO 00000KT 5SM -DZ FEW002 24/24 A2993 RMK AO2
KJVW 240055Z AUTO 00000KT 4SM -DZ FEW002 24/24 A2993 RMK AO2 LTG DSNT NE
KJVW 240035Z AUTO 00000KT 3SM -DZ FEW002 FEW050 24/24 A2994 RMK AO2
KJVW 240015Z AUTO 00000KT 3SM -DZ FEW002 FEW032 SCT049 24/24 A2994 RMK AO2 LTG DSNT SW
KJVW 232355Z AUTO 00000KT 8SM FEW026 FEW035 SCT080 24/24 A2993 RMK AO2
KJVW 232335Z AUTO 00000KT 3SM -RA FEW006 SCT020 BKN040 24/24 A2992 RMK AO2
KJVW 232315Z AUTO 13008G13KT 1 3/4SM BR SCT007 BKN028 OVC041 25/24 A2993 RMK AO2
KJVW 232255Z AUTO 18009KT 9SM VCTS FEW024 FEW031 SCT038 27/24 A2991 RMK AO2 LTG DSNT S
KJVW 232235Z AUTO 00000KT 9SM FEW044 SCT050 27/24 A2989 RMK AO2
KJVW 232215Z AUTO 00000KT 9SM FEW047 FEW055 27/24 A2989 RMK AO2
KJVW 232155Z AUTO 00000KT 9SM FEW042 SCT050 SCT060 28/23 A2989 RMK AO2
KJVW 232135Z AUTO 18009KT 9SM SCT042 BKN048 BKN055 29/24 A2989 RMK AO2
KJVW 232115Z AUTO 00000KT 9SM FEW046 29/25 A2989 RMK AO2
KJVW 232055Z AUTO 00000KT 9SM CLR 30/24 A2989 RMK AO2
KJVW 232035Z AUTO 13007KT 9SM CLR 31/23 A2989 RMK AO2
KJVW 232015Z AUTO 15005KT 9SM CLR 32/23 A2989 RMK AO2
KJVW 231955Z AUTO 11005KT 8SM CLR 32/24 A2989 RMK AO2
KJVW 231935Z AUTO 11007KT 9SM CLR 32/24 A2991 RMK AO2
KJVW 231915Z AUTO 12009KT 9SM FEW038 FEW043 FEW060 31/24 A2992 RMK AO2
KJVW 231855Z AUTO 18006KT 9SM SCT037 SCT043 BKN070 30/23 A2993 RMK AO2
KJVW 231835Z AUTO 14007KT 110V180 9SM FEW038 32/24 A2994 RMK AO2
KJVW 231815Z AUTO 21005KT 9SM FEW039 31/23 A2995 RMK AO2
KJVW 231755Z AUTO 18006KT 10SM FEW032 FEW038 31/24 A2996 RMK AO2
KJVW 231735Z AUTO 23005KT 9SM FEW032 FEW038 30/24 A2997 RMK AO2
KJVW 231715Z AUTO VRB04G10KT 9SM FEW025 30/24 A2998 RMK AO2
KJVW 231655Z AUTO 17007G12KT 9SM SCT023 SCT027 30/24 A2998 RMK AO2
KJVW 231635Z AUTO 22007KT 9SM FEW020 30/25 A2999 RMK AO2
KJVW 231615Z AUTO 17007KT 9SM FEW020 29/25 A2999 RMK AO2
KJVW 231555Z AUTO 15005KT 9SM CLR 28/25 A3000 RMK AO2
KJVW 231535Z AUTO 17005KT 9SM CLR 27/25 A3000 RMK AO2
KJVW 231515Z AUTO 16005KT 9SM CLR 27/25 A3000 RMK AO2
KJVW 231455Z AUTO 15003KT 8SM -DZ CLR 26/25 A2999 RMK AO2
KJVW 231435Z AUTO 13003KT 9SM -DZ CLR 26/25 A2999 RMK AO2
KJVW 231415Z AUTO 13003KT 7SM CLR 25/24 A2998 RMK AO2
KJVW 231355Z AUTO 12004KT 6SM BR CLR 25/24 A2998 RMK AO2
KJVW 231335Z AUTO 12005KT 7SM CLR 24/24 A2998 RMK AO2
KJVW 231315Z AUTO 12006KT 6SM BR CLR 24/24 A2997 RMK AO2
KJVW 231255Z AUTO 12004KT 7SM CLR 24/24 A2997 RMK AO2
KJVW 231235Z AUTO 12005KT 5SM BR CLR 23/23 A2997 RMK AO2
KJVW 231215Z AUTO 12004KT 7SM CLR 23/23 A2996 RMK AO2
KJVW 231155Z AUTO 12004KT 7SM CLR 23/23 A2995 RMK AO2
KJVW 231135Z AUTO 12006KT 7SM CLR 23/23 A2995 RMK AO2
KJVW 231115Z AUTO 12003KT 4SM BR CLR 23/23 A2995 RMK AO2
KJVW 231055Z AUTO 00000KT 3SM BR CLR 23/23 A2995 RMK AO2
KJVW 231035Z AUTO 00000KT 2SM BR CLR 23/23 A2995 RMK AO2
KJVW 231015Z AUTO 00000KT 3SM BR CLR 23/23 A2994 RMK AO2
KJVW 230955Z AUTO 00000KT 3SM BR CLR 23/23 A2994 RMK AO2
KJVW 230935Z AUTO 00000KT 4SM BR CLR 23/23 A2994 RMK AO2
KJVW 230915Z AUTO 00000KT 4SM BR 23/23 A2994 RMK AO2
KJVW 230855Z AUTO 00000KT 4SM BR CLR 23/23 A2994 RMK AO2
KJVW 230835Z AUTO 00000KT 4SM BR CLR 23/23 A2995 RMK AO2
KJVW 230815Z AUTO 00000KT 4SM BR CLR 23/23 A2995 RMK AO2
KJVW 230755Z AUTO 00000KT 4SM BR CLR 23/23 A2995 RMK AO2
KJVW 230735Z AUTO 00000KT 4SM -DZ CLR 23/23 A2995 RMK AO2
KJVW 230715Z AUTO 00000KT 3SM BR CLR 23/23 A2996 RMK AO2
KJVW 230655Z AUTO 00000KT 1 1/2SM BR CLR 23/23 A2996 RMK AO2
KJVW 230635Z AUTO 00000KT 3SM BR CLR 23/23 A2996 RMK AO2
KJVW 230615Z AUTO 00000KT 4SM BR CLR 23/23 A2997 RMK AO2
KJVW 230555Z AUTO 00000KT 4SM BR CLR 23/23 A2996 RMK AO2
KJVW 230535Z AUTO 00000KT 3SM BR SCT002 23/23 A2997 RMK AO2
KJVW 230515Z AUTO 00000KT 6SM BR BKN002 23/23 A2998 RMK AO2
KJVW 230455Z AUTO 00000KT 6SM -DZ SCT002 SCT028 24/24 A2998 RMK AO2
KJVW 230435Z AUTO 00000KT 7SM FEW028 24/24 A2998 RMK AO2
KJVW 230415Z AUTO 19003KT 6SM BR FEW028 24/24 A2998 RMK AO2
KJVW 230355Z AUTO 00000KT 8SM -DZ CLR 24/24 A2998 RMK AO2
KJVW 230335Z AUTO 00000KT 6SM BR CLR 24/24 A2998 RMK AO2
KJVW 230315Z AUTO 00000KT 5SM -DZ CLR 24/24 A2998 RMK AO2
KJVW 230255Z AUTO 00000KT 5SM BR FEW003 24/24 A2998 RMK AO2
KJVW 230235Z AUTO 00000KT 7SM -DZ SCT003 24/24 A2999 RMK AO2
KJVW 230215Z AUTO 00000KT 7SM CLR 24/24 A2998 RMK AO2
KJVW 230155Z AUTO 00000KT 6SM -DZ FEW002 FEW010 24/24 A2998 RMK AO2
KJVW 230135Z AUTO 00000KT 3SM RA BKN002 BKN010 BKN021 24/24 A2998 RMK AO2
KJVW 230115Z AUTO 00000KT 3SM -RA BKN002 BKN022 BKN033 24/24 A2998 RMK AO2
KJVW 230055Z AUTO 00000KT 4SM -DZ FEW002 FEW010 SCT018 24/24 A2999 RMK AO2
KJVW 230035Z AUTO VRB03KT 1 1/4SM RA BKN001 BKN010 OVC021 24/24 A2998 RMK AO2
KJVW 230015Z AUTO 22007KT 2SM VCTS RA FEW001 SCT010 BKN023 24/24 A2999 RMK AO2 LTG DSNT SE-SW
KJVW 222355Z AUTO 00000KT 8SM -DZ BKN025 OVC031 26/23 A2998 RMK AO2 TSNO
KJVW 222335Z AUTO 00000KT 10SM TS BKN025 BKN033 BKN044 27/22 A2997 RMK AO2 LTG DSNT S AND SW
KJVW 222315Z AUTO VRB06KT 8SM VCTS 27/23 A2995 RMK AO2 LTG DSNT S AND SW
KJVW 222255Z AUTO 14009KT 9SM VCTS 30/25 A2994 RMK AO2 LTG DSNT E AND SE
KJVW 222235Z AUTO 00000KT 9SM VCTS 30/26 A2993 RMK AO2 LTG DSNT E AND SE
KJVW 222215Z AUTO 00000KT 10SM VCTS 30/26 A2992 RMK AO2 LTG DSNT SE AND S
KJVW 222155Z AUTO 00000KT 8SM 31/26 A2993 RMK AO2
KJVW 222135Z AUTO 00000KT 9SM 32/25 A2992 RMK AO2 LTG DSNT SE AND SW
KJVW 222115Z AUTO 09003KT 9SM 32/23 A2993 RMK AO2
KJVW 222055Z AUTO 00000KT 9SM 33/22 A2993 RMK AO2
KJVW 222035Z AUTO 15004KT 9SM 32/22 A2993 RMK AO2
KJVW 222015Z AUTO 12004KT 9SM 33/23 A2994 RMK AO2
KJVW 221955Z AUTO 14004KT 9SM 33/23 A2994 RMK AO2
KJVW 221935Z AUTO 15005G10KT 9SM 33/23 A2994 RMK AO2
KJVW 221915Z AUTO 12006KT 9SM 33/23 A2995 RMK AO2
KJVW 221855Z AUTO VRB05G11KT 9SM 33/23 A2997 RMK AO2
KJVW 221835Z AUTO 20004G10KT 9SM 32/23 A2997 RMK AO2